Wilson Lista — 8PRW — position and weather

sailwx.info

Track history (hours):
 
Tides and Currents Weather Stations Pressure Air Temp Water Temp Dewpoint Dewpoint Depression Visibility Wind Speed Wind Dir Waves Ship Positions

Wilson Lista

Last reported at 2017-Mar-29 21:13 UTC. Time now 2017-Mar-29 22:59 UTC.
Position N 63°59' E 011°06'.

Length 88 m; draft 3.4 m.

Type: Cargo ship. MMSI: 314188000.

Date/timePositionNaut miles runAvg speedWind from/ knotsBaromVisibWave heightAir tempDewpointWater temp
2017-Mar-29 21:13N 63°59' E 011°06'0 0.0
2017-Mar-29 20:31N 63°59' E 011°06'0 0.0
2017-Mar-29 19:33N 63°59' E 011°06'0 0.0
2017-Mar-29 18:33N 63°59' E 011°06'0 0.0
2017-Mar-29 17:32N 63°59' E 011°06'0 0.0
2017-Mar-29 16:32N 63°59' E 011°06'0 0.0
2017-Mar-29 15:31N 63°59' E 011°06'0 0.0
2017-Mar-29 14:31N 63°59' E 011°06'0 0.0
2017-Mar-29 13:27N 63°59' E 011°06'0 0.0
2017-Mar-29 12:33N 63°59' E 011°06'0 0.0
2017-Mar-29 11:30N 63°59' E 011°06'0 0.0
2017-Mar-29 10:29N 63°59' E 011°06'0 0.0
2017-Mar-29 09:29N 63°59' E 011°06'0 0.0
2017-Mar-29 08:31N 63°59' E 011°06'0 0.0
2017-Mar-29 07:31N 63°59' E 011°06'0 0.0
2017-Mar-29 06:33N 63°59' E 011°06'0 0.0
2017-Mar-29 05:33N 63°59' E 011°06'0 0.0
2017-Mar-29 04:32N 63°59' E 011°06'0 0.0
2017-Mar-29 03:32N 63°59' E 011°06'0 0.0
2017-Mar-29 02:32N 63°59' E 011°06'0 0.0
2017-Mar-29 01:31N 63°59' E 011°06'0 0.0
2017-Mar-29 00:31N 63°59' E 011°06'0 0.0
2017-Mar-28 23:33N 63°59' E 011°06'0 0.0
2017-Mar-28 22:33N 63°59' E 011°06'0 0.0
2017-Mar-28 21:32N 63°59' E 011°06'0 0.0
2017-Mar-28 20:26N 63°59' E 011°06'0 0.0
2017-Mar-28 19:32N 63°59' E 011°06'0 0.0
2017-Mar-28 18:31N 63°59' E 011°06'0 0.0
2017-Mar-28 17:22N 63°59' E 011°06'0 0.0
2017-Mar-28 16:33N 63°59' E 011°06'1 0.6
2017-Mar-28 15:33N 63°58' E 011°06'9 9.2
2017-Mar-28 14:33N 63°49' E 011°04'10 9.5
2017-Mar-28 13:33N 63°41' E 010°51'1010.4
2017-Mar-28 12:33N 63°35' E 010°32'1110.8
2017-Mar-28 11:33N 63°29' E 010°13'1010.1
2017-Mar-28 10:33N 63°22' E 009°57'4 3.6
2017-Mar-28 09:33N 63°19' E 009°51'0 0.0
2017-Mar-28 08:33N 63°19' E 009°51'0 0.0
2017-Mar-28 07:33N 63°19' E 009°51'0 0.0
2017-Mar-28 06:20N 63°19' E 009°51'0 0.0
2017-Mar-28 05:32N 63°19' E 009°51'0 0.0
2017-Mar-28 04:31N 63°19' E 009°51'0 0.0
2017-Mar-28 03:31N 63°19' E 009°51'0 0.0
2017-Mar-28 02:33N 63°19' E 009°51'0 0.0
2017-Mar-28 01:33N 63°19' E 009°51'0 0.0
2017-Mar-28 00:33N 63°19' E 009°51'0 0.0
2017-Mar-27 23:32N 63°19' E 009°51'0 0.0
2017-Mar-27 22:32N 63°19' E 009°51'0 0.0
2017-Mar-27 21:31N 63°19' E 009°51'0 0.0
2017-Mar-27 20:28N 63°19' E 009°51'0 0.0
2017-Mar-27 19:33N 63°19' E 009°51'0 0.0
2017-Mar-27 18:24N 63°19' E 009°51'0 0.0
2017-Mar-27 17:33N 63°19' E 009°51'0 0.0
2017-Mar-27 16:32N 63°19' E 009°51'0 0.0
2017-Mar-27 15:33N 63°19' E 009°51'1 0.8
2017-Mar-27 14:31N 63°19' E 009°53'0 0.0
2017-Mar-27 13:31N 63°19' E 009°53'0 0.0
2017-Mar-27 12:33N 63°19' E 009°53'0 0.0
2017-Mar-27 11:33N 63°19' E 009°53'0 0.0
2017-Mar-27 10:32N 63°19' E 009°53'0 0.0
2017-Mar-27 09:32N 63°19' E 009°53'0 0.0
2017-Mar-27 08:32N 63°19' E 009°53'0 0.0
2017-Mar-27 07:31N 63°19' E 009°53'0 0.0
2017-Mar-27 06:31N 63°19' E 009°53'0 0.0
2017-Mar-27 05:33N 63°19' E 009°53'0 0.0
2017-Mar-27 04:33N 63°19' E 009°53'0 0.0
2017-Mar-27 03:32N 63°19' E 009°53'0 0.0
2017-Mar-27 02:32N 63°19' E 009°53'0 0.0
2017-Mar-27 01:32N 63°19' E 009°53'0 0.0
2017-Mar-27 00:32N 63°19' E 009°53'0 0.0
2017-Mar-26 23:31N 63°19' E 009°53'0 0.0
2017-Mar-26 22:31N 63°19' E 009°53'0 0.0
2017-Mar-26 21:33N 63°19' E 009°53'0 0.0
2017-Mar-26 20:33N 63°19' E 009°53'0 0.0
2017-Mar-26 19:33N 63°19' E 009°53'0 0.0
2017-Mar-26 18:26N 63°19' E 009°53'0 0.0
2017-Mar-26 17:32N 63°19' E 009°53'0 0.0
2017-Mar-26 16:31N 63°19' E 009°53'0 0.0
2017-Mar-26 15:31N 63°19' E 009°53'0 0.0
2017-Mar-26 14:33N 63°19' E 009°53'0 0.0
2017-Mar-26 13:33N 63°19' E 009°53'0 0.0
2017-Mar-26 12:32N 63°19' E 009°53'0 0.0
2017-Mar-26 11:32N 63°19' E 009°53'0 0.0
2017-Mar-26 10:32N 63°19' E 009°53'0 0.0
2017-Mar-26 09:31N 63°19' E 009°53'0 0.0
2017-Mar-26 08:31N 63°19' E 009°53'0 0.0
2017-Mar-26 07:27N 63°19' E 009°53'0 0.0
2017-Mar-26 06:33N 63°19' E 009°53'0 0.0
2017-Mar-26 05:32N 63°19' E 009°53'0 0.0
2017-Mar-26 04:32N 63°19' E 009°53'0 0.0
2017-Mar-26 03:32N 63°19' E 009°53'0 0.0
2017-Mar-26 02:31N 63°19' E 009°53'0 0.0
2017-Mar-26 01:31N 63°19' E 009°53'0 0.0
2017-Mar-26 00:33N 63°19' E 009°53'0 0.0
2017-Mar-25 23:31N 63°19' E 009°53'0 0.0
2017-Mar-25 22:33N 63°19' E 009°53'0 0.0
2017-Mar-25 21:33N 63°19' E 009°53'0 0.0
2017-Mar-25 20:33N 63°19' E 009°53'0 0.0
2017-Mar-25 19:32N 63°19' E 009°53'0 0.0
2017-Mar-25 18:29N 63°19' E 009°53'0 0.0
2017-Mar-25 17:31N 63°19' E 009°53'0 0.0
2017-Mar-25 16:31N 63°19' E 009°53'0 0.0
2017-Mar-25 15:33N 63°19' E 009°53'0 0.0
2017-Mar-25 14:33N 63°19' E 009°53'0 0.0
2017-Mar-25 13:33N 63°19' E 009°53'0 0.0
2017-Mar-25 12:32N 63°19' E 009°53'0 0.0
2017-Mar-25 11:32N 63°19' E 009°53'4 4.1
2017-Mar-25 10:34N 63°22' E 009°58'9 9.1
2017-Mar-25 09:34N 63°31' E 009°53'9 9.3
2017-Mar-25 08:33N 63°39' E 009°42'1010.5
2017-Mar-25 07:33N 63°34' E 009°22'1111.4
2017-Mar-25 06:33N 63°29' E 008°59'1110.8
2017-Mar-25 05:33N 63°25' E 008°36'1010.6
2017-Mar-25 04:34N 63°19' E 008°17'1110.9
2017-Mar-25 03:33N 63°13' E 007°56'8 8.2
2017-Mar-25 02:33N 63°15' E 007°38'8 7.8
2017-Mar-25 01:33N 63°14' E 007°21'9 8.5
2017-Mar-25 00:33N 63°09' E 007°05'8 8.4
2017-Mar-24 23:33N 63°04' E 006°51'8 7.7
2017-Mar-24 22:34N 62°60' E 006°37'8 7.9
2017-Mar-24 21:34N 62°55' E 006°23'8 8.3
2017-Mar-24 20:33N 62°49' E 006°09'8 8.4
2017-Mar-24 19:34N 62°44' E 005°56'8 8.0
2017-Mar-24 18:33N 62°38' E 005°44'8 8.0
2017-Mar-24 17:33N 62°32' E 005°32'8 8.2
2017-Mar-24 16:32N 62°26' E 005°20'8 8.3
2017-Mar-24 15:33N 62°20' E 005°09'8 8.1
2017-Mar-24 14:33N 62°13' E 004°58'8 7.7
2017-Mar-24 13:33N 62°06' E 004°51'8 8.2
2017-Mar-24 12:33N 61°59' E 004°44'8 8.0
2017-Mar-24 11:33N 61°52' E 004°37'8 8.1
2017-Mar-24 10:33N 61°44' E 004°31'8 7.5
2017-Mar-24 09:33N 61°37' E 004°27'7 6.7
2017-Mar-24 08:33N 61°30' E 004°24'8 8.0
2017-Mar-24 07:33N 61°22' E 004°21'8 7.7
2017-Mar-24 06:32N 61°15' E 004°19'8 7.9
2017-Mar-24 05:34N 61°07' E 004°17'8 7.8
2017-Mar-24 04:32N 60°59' E 004°15'  
2017-Mar-21 12:04N 52°51' E 004°15'4 7.6
2017-Mar-21 11:33N 52°48' E 004°11'8 7.7
2017-Mar-21 10:32N 52°42' E 004°03'94 8.6
2017-Mar-20 23:33N 51°32' E 002°20'8 8.3
2017-Mar-20 22:33N 51°26' E 002°12'8 8.3
2017-Mar-20 21:33N 51°18' E 002°07'8 8.0
2017-Mar-20 20:33N 51°12' E 001°59'10 9.9
2017-Mar-20 19:33N 51°06' E 001°46'1010.5
2017-Mar-20 18:33N 50°58' E 001°35'123 8.2
2017-Mar-20 03:33N 50°05' W 001°20'9 9.0
2017-Mar-20 02:33N 50°03' W 001°33'10 9.9
2017-Mar-20 01:33N 50°01' W 001°48'  
Track history (hours):
 
Tides and Currents Weather Stations Pressure Air Temp Water Temp Dewpoint Dewpoint Depression Visibility Wind Speed Wind Dir Waves Ship Positions

Wilson Lista

Last reported at 2017-Mar-29 21:13 UTC. Time now 2017-Mar-29 22:59 UTC.
Position N 63°59' E 011°06'.

Length 88 m; draft 3.4 m.

Type: Cargo ship. MMSI: 314188000.

Date/timePositionNaut miles runAvg speedWind from/ knotsBaromVisibWave heightAir tempDewpointWater temp
2017-Mar-29 21:13N 63°59' E 011°06'0 0.0
2017-Mar-29 20:31N 63°59' E 011°06'0 0.0
2017-Mar-29 19:33N 63°59' E 011°06'0 0.0
2017-Mar-29 18:33N 63°59' E 011°06'0 0.0
2017-Mar-29 17:32N 63°59' E 011°06'0 0.0
2017-Mar-29 16:32N 63°59' E 011°06'0 0.0
2017-Mar-29 15:31N 63°59' E 011°06'0 0.0
2017-Mar-29 14:31N 63°59' E 011°06'0 0.0
2017-Mar-29 13:27N 63°59' E 011°06'0 0.0
2017-Mar-29 12:33N 63°59' E 011°06'0 0.0
2017-Mar-29 11:30N 63°59' E 011°06'0 0.0
2017-Mar-29 10:29N 63°59' E 011°06'0 0.0
2017-Mar-29 09:29N 63°59' E 011°06'0 0.0
2017-Mar-29 08:31N 63°59' E 011°06'0 0.0
2017-Mar-29 07:31N 63°59' E 011°06'0 0.0
2017-Mar-29 06:33N 63°59' E 011°06'0 0.0
2017-Mar-29 05:33N 63°59' E 011°06'0 0.0
2017-Mar-29 04:32N 63°59' E 011°06'0 0.0
2017-Mar-29 03:32N 63°59' E 011°06'0 0.0
2017-Mar-29 02:32N 63°59' E 011°06'0 0.0
2017-Mar-29 01:31N 63°59' E 011°06'0 0.0
2017-Mar-29 00:31N 63°59' E 011°06'0 0.0
2017-Mar-28 23:33N 63°59' E 011°06'0 0.0
2017-Mar-28 22:33N 63°59' E 011°06'0 0.0
2017-Mar-28 21:32N 63°59' E 011°06'0 0.0
2017-Mar-28 20:26N 63°59' E 011°06'0 0.0
2017-Mar-28 19:32N 63°59' E 011°06'0 0.0
2017-Mar-28 18:31N 63°59' E 011°06'0 0.0
2017-Mar-28 17:22N 63°59' E 011°06'0 0.0
2017-Mar-28 16:33N 63°59' E 011°06'1 0.6
2017-Mar-28 15:33N 63°58' E 011°06'9 9.2
2017-Mar-28 14:33N 63°49' E 011°04'10 9.5
2017-Mar-28 13:33N 63°41' E 010°51'1010.4
2017-Mar-28 12:33N 63°35' E 010°32'1110.8
2017-Mar-28 11:33N 63°29' E 010°13'1010.1
2017-Mar-28 10:33N 63°22' E 009°57'4 3.6
2017-Mar-28 09:33N 63°19' E 009°51'0 0.0
2017-Mar-28 08:33N 63°19' E 009°51'0 0.0
2017-Mar-28 07:33N 63°19' E 009°51'0 0.0
2017-Mar-28 06:20N 63°19' E 009°51'0 0.0
2017-Mar-28 05:32N 63°19' E 009°51'0 0.0
2017-Mar-28 04:31N 63°19' E 009°51'0 0.0
2017-Mar-28 03:31N 63°19' E 009°51'0 0.0
2017-Mar-28 02:33N 63°19' E 009°51'0 0.0
2017-Mar-28 01:33N 63°19' E 009°51'0 0.0
2017-Mar-28 00:33N 63°19' E 009°51'0 0.0
2017-Mar-27 23:32N 63°19' E 009°51'0 0.0
2017-Mar-27 22:32N 63°19' E 009°51'0 0.0
2017-Mar-27 21:31N 63°19' E 009°51'0 0.0
2017-Mar-27 20:28N 63°19' E 009°51'0 0.0
2017-Mar-27 19:33N 63°19' E 009°51'0 0.0
2017-Mar-27 18:24N 63°19' E 009°51'0 0.0
2017-Mar-27 17:33N 63°19' E 009°51'0 0.0
2017-Mar-27 16:32N 63°19' E 009°51'0 0.0
2017-Mar-27 15:33N 63°19' E 009°51'1 0.8
2017-Mar-27 14:31N 63°19' E 009°53'0 0.0
2017-Mar-27 13:31N 63°19' E 009°53'0 0.0
2017-Mar-27 12:33N 63°19' E 009°53'0 0.0
2017-Mar-27 11:33N 63°19' E 009°53'0 0.0
2017-Mar-27 10:32N 63°19' E 009°53'0 0.0
2017-Mar-27 09:32N 63°19' E 009°53'0 0.0
2017-Mar-27 08:32N 63°19' E 009°53'0 0.0
2017-Mar-27 07:31N 63°19' E 009°53'0 0.0
2017-Mar-27 06:31N 63°19' E 009°53'0 0.0
2017-Mar-27 05:33N 63°19' E 009°53'0 0.0
2017-Mar-27 04:33N 63°19' E 009°53'0 0.0
2017-Mar-27 03:32N 63°19' E 009°53'0 0.0
2017-Mar-27 02:32N 63°19' E 009°53'0 0.0
2017-Mar-27 01:32N 63°19' E 009°53'0 0.0
2017-Mar-27 00:32N 63°19' E 009°53'0 0.0
2017-Mar-26 23:31N 63°19' E 009°53'0 0.0
2017-Mar-26 22:31N 63°19' E 009°53'0 0.0
2017-Mar-26 21:33N 63°19' E 009°53'0 0.0
2017-Mar-26 20:33N 63°19' E 009°53'0 0.0
2017-Mar-26 19:33N 63°19' E 009°53'0 0.0
2017-Mar-26 18:26N 63°19' E 009°53'0 0.0
2017-Mar-26 17:32N 63°19' E 009°53'0 0.0
2017-Mar-26 16:31N 63°19' E 009°53'0 0.0
2017-Mar-26 15:31N 63°19' E 009°53'0 0.0
2017-Mar-26 14:33N 63°19' E 009°53'0 0.0
2017-Mar-26 13:33N 63°19' E 009°53'0 0.0
2017-Mar-26 12:32N 63°19' E 009°53'0 0.0
2017-Mar-26 11:32N 63°19' E 009°53'0 0.0
2017-Mar-26 10:32N 63°19' E 009°53'0 0.0
2017-Mar-26 09:31N 63°19' E 009°53'0 0.0
2017-Mar-26 08:31N 63°19' E 009°53'0 0.0
2017-Mar-26 07:27N 63°19' E 009°53'0 0.0
2017-Mar-26 06:33N 63°19' E 009°53'0 0.0
2017-Mar-26 05:32N 63°19' E 009°53'0 0.0
2017-Mar-26 04:32N 63°19' E 009°53'0 0.0
2017-Mar-26 03:32N 63°19' E 009°53'0 0.0
2017-Mar-26 02:31N 63°19' E 009°53'0 0.0
2017-Mar-26 01:31N 63°19' E 009°53'0 0.0
2017-Mar-26 00:33N 63°19' E 009°53'0 0.0
2017-Mar-25 23:31N 63°19' E 009°53'0 0.0
2017-Mar-25 22:33N 63°19' E 009°53'0 0.0
2017-Mar-25 21:33N 63°19' E 009°53'0 0.0
2017-Mar-25 20:33N 63°19' E 009°53'0 0.0
2017-Mar-25 19:32N 63°19' E 009°53'0 0.0
2017-Mar-25 18:29N 63°19' E 009°53'0 0.0
2017-Mar-25 17:31N 63°19' E 009°53'0 0.0
2017-Mar-25 16:31N 63°19' E 009°53'0 0.0
2017-Mar-25 15:33N 63°19' E 009°53'0 0.0
2017-Mar-25 14:33N 63°19' E 009°53'0 0.0
2017-Mar-25 13:33N 63°19' E 009°53'0 0.0
2017-Mar-25 12:32N 63°19' E 009°53'0 0.0
2017-Mar-25 11:32N 63°19' E 009°53'4 4.1
2017-Mar-25 10:34N 63°22' E 009°58'9 9.1
2017-Mar-25 09:34N 63°31' E 009°53'9 9.3
2017-Mar-25 08:33N 63°39' E 009°42'1010.5
2017-Mar-25 07:33N 63°34' E 009°22'1111.4
2017-Mar-25 06:33N 63°29' E 008°59'1110.8
2017-Mar-25 05:33N 63°25' E 008°36'1010.6
2017-Mar-25 04:34N 63°19' E 008°17'1110.9
2017-Mar-25 03:33N 63°13' E 007°56'8 8.2
2017-Mar-25 02:33N 63°15' E 007°38'8 7.8
2017-Mar-25 01:33N 63°14' E 007°21'9 8.5
2017-Mar-25 00:33N 63°09' E 007°05'8 8.4
2017-Mar-24 23:33N 63°04' E 006°51'8 7.7
2017-Mar-24 22:34N 62°60' E 006°37'8 7.9
2017-Mar-24 21:34N 62°55' E 006°23'8 8.3
2017-Mar-24 20:33N 62°49' E 006°09'8 8.4
2017-Mar-24 19:34N 62°44' E 005°56'8 8.0
2017-Mar-24 18:33N 62°38' E 005°44'8 8.0
2017-Mar-24 17:33N 62°32' E 005°32'8 8.2
2017-Mar-24 16:32N 62°26' E 005°20'8 8.3
2017-Mar-24 15:33N 62°20' E 005°09'8 8.1
2017-Mar-24 14:33N 62°13' E 004°58'8 7.7
2017-Mar-24 13:33N 62°06' E 004°51'8 8.2
2017-Mar-24 12:33N 61°59' E 004°44'8 8.0
2017-Mar-24 11:33N 61°52' E 004°37'8 8.1
2017-Mar-24 10:33N 61°44' E 004°31'8 7.5
2017-Mar-24 09:33N 61°37' E 004°27'7 6.7
2017-Mar-24 08:33N 61°30' E 004°24'8 8.0
2017-Mar-24 07:33N 61°22' E 004°21'8 7.7
2017-Mar-24 06:32N 61°15' E 004°19'8 7.9
2017-Mar-24 05:34N 61°07' E 004°17'8 7.8
2017-Mar-24 04:32N 60°59' E 004°15'  
2017-Mar-21 12:04N 52°51' E 004°15'4 7.6
2017-Mar-21 11:33N 52°48' E 004°11'8 7.7
2017-Mar-21 10:32N 52°42' E 004°03'94 8.6
2017-Mar-20 23:33N 51°32' E 002°20'8 8.3
2017-Mar-20 22:33N 51°26' E 002°12'8 8.3
2017-Mar-20 21:33N 51°18' E 002°07'8 8.0
2017-Mar-20 20:33N 51°12' E 001°59'10 9.9
2017-Mar-20 19:33N 51°06' E 001°46'1010.5
2017-Mar-20 18:33N 50°58' E 001°35'123 8.2
2017-Mar-20 03:33N 50°05' W 001°20'9 9.0
2017-Mar-20 02:33N 50°03' W 001°33'10 9.9
2017-Mar-20 01:33N 50°01' W 001°48'  

Dump ship's entire track history